sensor_id;sensor_type;location;lat;lon;timestamp;temperature;humidity
37432;DHT22;23292;51.300;6.252;2024-03-06T00:02:08;4.90;99.90
37432;DHT22;23292;51.300;6.252;2024-03-06T00:04:35;4.90;99.90
37432;DHT22;23292;51.300;6.252;2024-03-06T00:07:02;4.90;99.90
37432;DHT22;23292;51.300;6.252;2024-03-06T00:09:29;4.90;99.90
37432;DHT22;23292;51.300;6.252;2024-03-06T00:11:56;4.90;99.90
37432;DHT22;23292;51.300;6.252;2024-03-06T00:14:24;5.00;99.90
37432;DHT22;23292;51.300;6.252;2024-03-06T00:16:51;5.00;99.90
37432;DHT22;23292;51.300;6.252;2024-03-06T00:19:18;5.00;99.90
37432;DHT22;23292;51.300;6.252;2024-03-06T00:21:45;5.10;99.90
37432;DHT22;23292;51.300;6.252;2024-03-06T00:24:15;5.10;99.90
37432;DHT22;23292;51.300;6.252;2024-03-06T00:26:44;5.10;99.90
37432;DHT22;23292;51.300;6.252;2024-03-06T00:29:11;5.10;99.90
37432;DHT22;23292;51.300;6.252;2024-03-06T00:31:43;5.10;99.90
37432;DHT22;23292;51.300;6.252;2024-03-06T00:34:10;5.20;99.90
37432;DHT22;23292;51.300;6.252;2024-03-06T00:36:37;5.20;99.90
37432;DHT22;23292;51.300;6.252;2024-03-06T00:39:04;5.10;99.90
37432;DHT22;23292;51.300;6.252;2024-03-06T00:41:31;5.10;99.90
37432;DHT22;23292;51.300;6.252;2024-03-06T00:43:58;5.20;99.90
37432;DHT22;23292;51.300;6.252;2024-03-06T00:46:25;5.10;99.90
37432;DHT22;23292;51.300;6.252;2024-03-06T00:48:52;5.10;99.90
37432;DHT22;23292;51.300;6.252;2024-03-06T00:51:18;5.10;99.90
37432;DHT22;23292;51.300;6.252;2024-03-06T00:53:55;5.10;99.90
37432;DHT22;23292;51.300;6.252;2024-03-06T00:56:22;5.10;99.90
37432;DHT22;23292;51.300;6.252;2024-03-06T00:58:49;5.00;99.90
37432;DHT22;23292;51.300;6.252;2024-03-06T01:01:16;4.90;99.90
37432;DHT22;23292;51.300;6.252;2024-03-06T01:03:42;4.80;99.90
37432;DHT22;23292;51.300;6.252;2024-03-06T01:06:09;4.90;99.90
37432;DHT22;23292;51.300;6.252;2024-03-06T01:08:36;4.90;99.90
37432;DHT22;23292;51.300;6.252;2024-03-06T01:11:03;4.90;99.90
37432;DHT22;23292;51.300;6.252;2024-03-06T01:13:31;4.90;99.90
37432;DHT22;23292;51.300;6.252;2024-03-06T01:15:58;5.00;99.90
37432;DHT22;23292;51.300;6.252;2024-03-06T01:18:24;5.00;99.90
37432;DHT22;23292;51.300;6.252;2024-03-06T01:20:51;5.10;99.90
37432;DHT22;23292;51.300;6.252;2024-03-06T01:23:18;5.10;99.90
37432;DHT22;23292;51.300;6.252;2024-03-06T01:25:45;5.10;99.90
37432;DHT22;23292;51.300;6.252;2024-03-06T01:28:12;5.20;99.90
37432;DHT22;23292;51.300;6.252;2024-03-06T01:30:39;5.20;99.90
37432;DHT22;23292;51.300;6.252;2024-03-06T01:33:06;5.20;99.90
37432;DHT22;23292;51.300;6.252;2024-03-06T01:35:33;5.20;99.90
37432;DHT22;23292;51.300;6.252;2024-03-06T01:37:59;5.20;99.90
37432;DHT22;23292;51.300;6.252;2024-03-06T01:40:28;5.20;99.90
37432;DHT22;23292;51.300;6.252;2024-03-06T01:42:56;5.20;99.90
37432;DHT22;23292;51.300;6.252;2024-03-06T01:45:23;5.20;99.90
37432;DHT22;23292;51.300;6.252;2024-03-06T01:47:50;5.30;99.90
37432;DHT22;23292;51.300;6.252;2024-03-06T01:50:17;5.20;99.90
37432;DHT22;23292;51.300;6.252;2024-03-06T01:52:46;5.30;99.90
37432;DHT22;23292;51.300;6.252;2024-03-06T01:55:13;5.30;99.90
37432;DHT22;23292;51.300;6.252;2024-03-06T01:57:41;5.40;99.90
37432;DHT22;23292;51.300;6.252;2024-03-06T02:00:09;5.40;99.90
37432;DHT22;23292;51.300;6.252;2024-03-06T02:02:41;5.40;99.90
37432;DHT22;23292;51.300;6.252;2024-03-06T02:05:09;5.40;99.90
37432;DHT22;23292;51.300;6.252;2024-03-06T02:07:38;5.40;99.90
37432;DHT22;23292;51.300;6.252;2024-03-06T02:10:07;5.40;99.90
37432;DHT22;23292;51.300;6.252;2024-03-06T02:12:37;5.50;99.90
37432;DHT22;23292;51.300;6.252;2024-03-06T02:15:04;5.50;99.90
37432;DHT22;23292;51.300;6.252;2024-03-06T02:17:32;5.50;99.90
37432;DHT22;23292;51.300;6.252;2024-03-06T02:19:58;5.50;99.90
37432;DHT22;23292;51.300;6.252;2024-03-06T02:22:25;5.50;99.90
37432;DHT22;23292;51.300;6.252;2024-03-06T02:24:52;5.50;99.90
37432;DHT22;23292;51.300;6.252;2024-03-06T02:27:19;5.50;99.90
37432;DHT22;23292;51.300;6.252;2024-03-06T02:29:46;5.50;99.90
37432;DHT22;23292;51.300;6.252;2024-03-06T02:32:13;5.50;99.90
37432;DHT22;23292;51.300;6.252;2024-03-06T02:34:44;5.40;99.90
37432;DHT22;23292;51.300;6.252;2024-03-06T02:37:11;5.30;99.90
37432;DHT22;23292;51.300;6.252;2024-03-06T02:39:38;5.20;99.90
37432;DHT22;23292;51.300;6.252;2024-03-06T02:42:05;5.10;99.90
37432;DHT22;23292;51.300;6.252;2024-03-06T02:44:31;5.00;99.90
37432;DHT22;23292;51.300;6.252;2024-03-06T02:46:58;4.90;99.90
37432;DHT22;23292;51.300;6.252;2024-03-06T02:49:25;4.90;99.90
37432;DHT22;23292;51.300;6.252;2024-03-06T02:51:52;4.80;99.90
37432;DHT22;23292;51.300;6.252;2024-03-06T02:54:19;4.70;99.90
37432;DHT22;23292;51.300;6.252;2024-03-06T02:56:45;4.60;99.90
37432;DHT22;23292;51.300;6.252;2024-03-06T02:59:12;4.50;99.90
37432;DHT22;23292;51.300;6.252;2024-03-06T03:01:40;4.40;99.90
37432;DHT22;23292;51.300;6.252;2024-03-06T03:04:07;4.30;99.90
37432;DHT22;23292;51.300;6.252;2024-03-06T03:06:34;4.20;99.90
37432;DHT22;23292;51.300;6.252;2024-03-06T03:09:01;4.20;99.90
37432;DHT22;23292;51.300;6.252;2024-03-06T03:11:30;4.20;99.90
37432;DHT22;23292;51.300;6.252;2024-03-06T03:13:58;4.10;99.90
37432;DHT22;23292;51.300;6.252;2024-03-06T03:16:25;4.10;99.90
37432;DHT22;23292;51.300;6.252;2024-03-06T03:18:52;4.00;99.90
37432;DHT22;23292;51.300;6.252;2024-03-06T03:21:19;3.90;99.90
37432;DHT22;23292;51.300;6.252;2024-03-06T03:23:45;3.90;99.90
37432;DHT22;23292;51.300;6.252;2024-03-06T03:26:12;3.90;99.90
37432;DHT22;23292;51.300;6.252;2024-03-06T03:28:39;3.90;99.90
37432;DHT22;23292;51.300;6.252;2024-03-06T03:31:07;3.90;99.90
37432;DHT22;23292;51.300;6.252;2024-03-06T03:33:36;3.90;99.90
37432;DHT22;23292;51.300;6.252;2024-03-06T03:36:05;3.80;99.90
37432;DHT22;23292;51.300;6.252;2024-03-06T03:38:37;3.80;99.90
37432;DHT22;23292;51.300;6.252;2024-03-06T03:41:10;3.80;99.90
37432;DHT22;23292;51.300;6.252;2024-03-06T03:43:39;3.80;99.90
37432;DHT22;23292;51.300;6.252;2024-03-06T03:46:06;3.70;99.90
37432;DHT22;23292;51.300;6.252;2024-03-06T03:48:33;3.70;99.90
37432;DHT22;23292;51.300;6.252;2024-03-06T03:51:03;3.60;99.90
37432;DHT22;23292;51.300;6.252;2024-03-06T03:53:33;3.60;99.90
37432;DHT22;23292;51.300;6.252;2024-03-06T03:56:01;3.50;99.90
37432;DHT22;23292;51.300;6.252;2024-03-06T03:58:28;3.40;99.90
37432;DHT22;23292;51.300;6.252;2024-03-06T04:00:55;3.40;99.90
37432;DHT22;23292;51.300;6.252;2024-03-06T04:03:22;3.30;99.90
37432;DHT22;23292;51.300;6.252;2024-03-06T04:05:51;3.20;99.90
37432;DHT22;23292;51.300;6.252;2024-03-06T04:08:18;3.20;99.90
37432;DHT22;23292;51.300;6.252;2024-03-06T04:10:45;3.20;99.90
37432;DHT22;23292;51.300;6.252;2024-03-06T04:13:14;3.10;99.90
37432;DHT22;23292;51.300;6.252;2024-03-06T04:15:41;3.10;99.90
37432;DHT22;23292;51.300;6.252;2024-03-06T04:18:08;3.00;99.90
37432;DHT22;23292;51.300;6.252;2024-03-06T04:20:35;3.00;99.90
37432;DHT22;23292;51.300;6.252;2024-03-06T04:23:02;2.90;99.90
37432;DHT22;23292;51.300;6.252;2024-03-06T04:25:29;2.90;99.90
37432;DHT22;23292;51.300;6.252;2024-03-06T04:27:56;2.90;99.90
37432;DHT22;23292;51.300;6.252;2024-03-06T04:30:22;2.90;99.90
37432;DHT22;23292;51.300;6.252;2024-03-06T04:32:49;2.90;99.90
37432;DHT22;23292;51.300;6.252;2024-03-06T04:35:16;2.90;99.90
37432;DHT22;23292;51.300;6.252;2024-03-06T04:37:43;2.80;99.90
37432;DHT22;23292;51.300;6.252;2024-03-06T04:40:11;2.90;99.90
37432;DHT22;23292;51.300;6.252;2024-03-06T04:42:38;2.90;99.90
37432;DHT22;23292;51.300;6.252;2024-03-06T04:45:15;3.00;99.90
37432;DHT22;23292;51.300;6.252;2024-03-06T04:47:42;3.00;99.90
37432;DHT22;23292;51.300;6.252;2024-03-06T04:50:10;3.00;99.90
37432;DHT22;23292;51.300;6.252;2024-03-06T04:52:38;3.10;99.90
37432;DHT22;23292;51.300;6.252;2024-03-06T04:55:06;3.10;99.90
37432;DHT22;23292;51.300;6.252;2024-03-06T04:57:34;3.10;99.90
37432;DHT22;23292;51.300;6.252;2024-03-06T05:00:00;3.10;99.90
37432;DHT22;23292;51.300;6.252;2024-03-06T05:02:35;3.20;99.90
37432;DHT22;23292;51.300;6.252;2024-03-06T05:05:21;3.20;99.90
37432;DHT22;23292;51.300;6.252;2024-03-06T05:08:05;3.10;99.90
37432;DHT22;23292;51.300;6.252;2024-03-06T05:10:50;3.10;99.90
37432;DHT22;23292;51.300;6.252;2024-03-06T05:13:35;3.10;99.90
37432;DHT22;23292;51.300;6.252;2024-03-06T05:16:19;3.10;99.90
37432;DHT22;23292;51.300;6.252;2024-03-06T05:19:03;3.10;99.90
37432;DHT22;23292;51.300;6.252;2024-03-06T05:21:48;3.10;99.90
37432;DHT22;23292;51.300;6.252;2024-03-06T05:24:33;3.00;99.90
37432;DHT22;23292;51.300;6.252;2024-03-06T05:27:17;2.90;99.90
37432;DHT22;23292;51.300;6.252;2024-03-06T05:30:02;2.80;99.90
37432;DHT22;23292;51.300;6.252;2024-03-06T05:32:49;2.70;99.90
37432;DHT22;23292;51.300;6.252;2024-03-06T05:35:33;2.70;99.90
37432;DHT22;23292;51.300;6.252;2024-03-06T05:38:17;2.60;99.90
37432;DHT22;23292;51.300;6.252;2024-03-06T05:41:03;2.70;99.90
37432;DHT22;23292;51.300;6.252;2024-03-06T05:43:47;2.60;99.90
37432;DHT22;23292;51.300;6.252;2024-03-06T05:46:31;2.50;99.90
37432;DHT22;23292;51.300;6.252;2024-03-06T05:49:16;2.50;99.90
37432;DHT22;23292;51.300;6.252;2024-03-06T05:52:00;2.50;99.90
37432;DHT22;23292;51.300;6.252;2024-03-06T05:54:44;2.50;99.90
37432;DHT22;23292;51.300;6.252;2024-03-06T05:57:29;2.50;99.90
37432;DHT22;23292;51.300;6.252;2024-03-06T06:00:13;2.50;99.90
37432;DHT22;23292;51.300;6.252;2024-03-06T06:02:40;2.40;99.90
37432;DHT22;23292;51.300;6.252;2024-03-06T06:05:07;2.40;99.90
37432;DHT22;23292;51.300;6.252;2024-03-06T06:07:50;2.40;99.90
37432;DHT22;23292;51.300;6.252;2024-03-06T06:10:17;2.30;99.90
37432;DHT22;23292;51.300;6.252;2024-03-06T06:12:47;2.30;99.90
37432;DHT22;23292;51.300;6.252;2024-03-06T06:15:14;2.30;99.90
37432;DHT22;23292;51.300;6.252;2024-03-06T06:17:42;2.30;99.90
37432;DHT22;23292;51.300;6.252;2024-03-06T06:20:11;2.30;99.90
37432;DHT22;23292;51.300;6.252;2024-03-06T06:22:42;2.30;99.90
37432;DHT22;23292;51.300;6.252;2024-03-06T06:25:09;2.30;99.90
37432;DHT22;23292;51.300;6.252;2024-03-06T06:27:37;2.30;99.90
37432;DHT22;23292;51.300;6.252;2024-03-06T06:30:05;2.30;99.90
37432;DHT22;23292;51.300;6.252;2024-03-06T06:32:34;2.40;99.90
37432;DHT22;23292;51.300;6.252;2024-03-06T06:35:01;2.40;99.90
37432;DHT22;23292;51.300;6.252;2024-03-06T06:37:28;2.50;99.90
37432;DHT22;23292;51.300;6.252;2024-03-06T06:39:55;2.50;99.90
37432;DHT22;23292;51.300;6.252;2024-03-06T06:42:22;2.60;99.90
37432;DHT22;23292;51.300;6.252;2024-03-06T06:44:49;2.60;99.90
37432;DHT22;23292;51.300;6.252;2024-03-06T06:47:16;2.70;99.90
37432;DHT22;23292;51.300;6.252;2024-03-06T06:49:43;2.90;99.90
37432;DHT22;23292;51.300;6.252;2024-03-06T06:52:11;3.00;99.90
37432;DHT22;23292;51.300;6.252;2024-03-06T06:54:38;3.30;99.90
37432;DHT22;23292;51.300;6.252;2024-03-06T06:57:05;3.60;99.90
37432;DHT22;23292;51.300;6.252;2024-03-06T06:59:31;4.00;99.90
37432;DHT22;23292;51.300;6.252;2024-03-06T07:01:58;4.50;99.90
37432;DHT22;23292;51.300;6.252;2024-03-06T07:04:25;4.80;99.90
37432;DHT22;23292;51.300;6.252;2024-03-06T07:06:52;5.10;99.90
37432;DHT22;23292;51.300;6.252;2024-03-06T07:09:19;5.40;99.90
37432;DHT22;23292;51.300;6.252;2024-03-06T07:11:46;5.60;99.90
37432;DHT22;23292;51.300;6.252;2024-03-06T07:14:13;5.80;99.90
37432;DHT22;23292;51.300;6.252;2024-03-06T07:16:44;5.90;99.90
37432;DHT22;23292;51.300;6.252;2024-03-06T07:19:11;6.10;99.90
37432;DHT22;23292;51.300;6.252;2024-03-06T07:21:38;6.20;99.90
37432;DHT22;23292;51.300;6.252;2024-03-06T07:24:06;6.30;99.90
37432;DHT22;23292;51.300;6.252;2024-03-06T07:26:33;6.30;99.90
37432;DHT22;23292;51.300;6.252;2024-03-06T07:29:01;6.30;99.90
37432;DHT22;23292;51.300;6.252;2024-03-06T07:31:28;6.20;99.90
37432;DHT22;23292;51.300;6.252;2024-03-06T07:33:55;6.20;99.90
37432;DHT22;23292;51.300;6.252;2024-03-06T07:36:22;6.10;99.90
37432;DHT22;23292;51.300;6.252;2024-03-06T07:38:48;6.00;99.90
37432;DHT22;23292;51.300;6.252;2024-03-06T07:41:15;5.70;99.90
37432;DHT22;23292;51.300;6.252;2024-03-06T07:43:43;5.70;99.90
37432;DHT22;23292;51.300;6.252;2024-03-06T07:46:09;5.80;99.90
37432;DHT22;23292;51.300;6.252;2024-03-06T07:48:38;5.70;99.90
37432;DHT22;23292;51.300;6.252;2024-03-06T07:51:05;5.70;99.90
37432;DHT22;23292;51.300;6.252;2024-03-06T07:53:33;5.70;99.90
37432;DHT22;23292;51.300;6.252;2024-03-06T07:56:02;5.70;99.90
37432;DHT22;23292;51.300;6.252;2024-03-06T07:58:29;5.80;99.90
37432;DHT22;23292;51.300;6.252;2024-03-06T08:00:56;5.80;99.90
37432;DHT22;23292;51.300;6.252;2024-03-06T08:03:23;5.80;99.90
37432;DHT22;23292;51.300;6.252;2024-03-06T08:05:51;5.90;99.90
37432;DHT22;23292;51.300;6.252;2024-03-06T08:08:22;6.00;99.90
37432;DHT22;23292;51.300;6.252;2024-03-06T08:10:49;6.20;99.90
37432;DHT22;23292;51.300;6.252;2024-03-06T08:13:17;6.30;99.90
37432;DHT22;23292;51.300;6.252;2024-03-06T08:15:46;6.30;99.90
37432;DHT22;23292;51.300;6.252;2024-03-06T08:18:12;6.60;99.90
37432;DHT22;23292;51.300;6.252;2024-03-06T08:20:41;6.60;99.90
37432;DHT22;23292;51.300;6.252;2024-03-06T08:23:09;6.70;99.90
37432;DHT22;23292;51.300;6.252;2024-03-06T08:25:39;6.80;99.90
37432;DHT22;23292;51.300;6.252;2024-03-06T08:28:07;6.90;99.90
37432;DHT22;23292;51.300;6.252;2024-03-06T08:30:34;7.00;99.90
37432;DHT22;23292;51.300;6.252;2024-03-06T08:33:01;7.10;99.90
37432;DHT22;23292;51.300;6.252;2024-03-06T08:35:29;7.30;99.90
37432;DHT22;23292;51.300;6.252;2024-03-06T08:37:56;7.50;99.90
37432;DHT22;23292;51.300;6.252;2024-03-06T08:40:23;7.40;99.90
37432;DHT22;23292;51.300;6.252;2024-03-06T08:42:52;7.60;99.90
37432;DHT22;23292;51.300;6.252;2024-03-06T08:45:19;7.70;99.90
37432;DHT22;23292;51.300;6.252;2024-03-06T08:47:47;7.70;99.90
37432;DHT22;23292;51.300;6.252;2024-03-06T08:50:17;7.90;99.90
37432;DHT22;23292;51.300;6.252;2024-03-06T08:52:44;8.00;99.90
37432;DHT22;23292;51.300;6.252;2024-03-06T08:55:11;8.20;99.90
37432;DHT22;23292;51.300;6.252;2024-03-06T08:57:38;8.40;99.90
37432;DHT22;23292;51.300;6.252;2024-03-06T09:00:07;8.50;99.90
37432;DHT22;23292;51.300;6.252;2024-03-06T09:02:37;8.60;99.90
37432;DHT22;23292;51.300;6.252;2024-03-06T09:05:09;8.60;99.90
37432;DHT22;23292;51.300;6.252;2024-03-06T09:07:39;8.70;99.90
37432;DHT22;23292;51.300;6.252;2024-03-06T09:10:08;8.90;99.90
37432;DHT22;23292;51.300;6.252;2024-03-06T09:12:36;9.00;99.90
37432;DHT22;23292;51.300;6.252;2024-03-06T09:15:03;9.10;99.90
37432;DHT22;23292;51.300;6.252;2024-03-06T09:17:30;9.10;99.90
37432;DHT22;23292;51.300;6.252;2024-03-06T09:19:57;9.20;99.90
37432;DHT22;23292;51.300;6.252;2024-03-06T09:22:39;9.30;99.90
37432;DHT22;23292;51.300;6.252;2024-03-06T09:25:06;9.50;99.90
37432;DHT22;23292;51.300;6.252;2024-03-06T09:27:34;9.50;99.90
37432;DHT22;23292;51.300;6.252;2024-03-06T09:30:01;9.70;99.90
37432;DHT22;23292;51.300;6.252;2024-03-06T09:32:29;9.90;99.90
37432;DHT22;23292;51.300;6.252;2024-03-06T09:34:58;10.00;99.90
37432;DHT22;23292;51.300;6.252;2024-03-06T09:37:25;10.00;99.90
37432;DHT22;23292;51.300;6.252;2024-03-06T09:39:52;10.00;99.90
37432;DHT22;23292;51.300;6.252;2024-03-06T09:42:19;10.10;99.90
37432;DHT22;23292;51.300;6.252;2024-03-06T09:44:46;10.20;99.90
37432;DHT22;23292;51.300;6.252;2024-03-06T09:47:14;10.20;99.90
37432;DHT22;23292;51.300;6.252;2024-03-06T09:49:44;10.20;99.90
37432;DHT22;23292;51.300;6.252;2024-03-06T09:52:11;10.10;99.90
37432;DHT22;23292;51.300;6.252;2024-03-06T09:54:38;10.30;99.90
37432;DHT22;23292;51.300;6.252;2024-03-06T09:57:06;10.40;99.90
37432;DHT22;23292;51.300;6.252;2024-03-06T09:59:33;10.50;99.90
37432;DHT22;23292;51.300;6.252;2024-03-06T10:02:00;10.60;99.90
37432;DHT22;23292;51.300;6.252;2024-03-06T10:04:32;10.40;99.90
37432;DHT22;23292;51.300;6.252;2024-03-06T10:07:01;10.40;99.90
37432;DHT22;23292;51.300;6.252;2024-03-06T10:09:29;10.70;99.90
37432;DHT22;23292;51.300;6.252;2024-03-06T10:11:57;10.90;99.90
37432;DHT22;23292;51.300;6.252;2024-03-06T10:14:29;11.00;99.90
37432;DHT22;23292;51.300;6.252;2024-03-06T10:17:00;11.10;99.90
37432;DHT22;23292;51.300;6.252;2024-03-06T10:19:29;11.00;99.90
37432;DHT22;23292;51.300;6.252;2024-03-06T10:21:56;11.10;99.90
37432;DHT22;23292;51.300;6.252;2024-03-06T10:24:25;11.00;99.90
37432;DHT22;23292;51.300;6.252;2024-03-06T10:26:54;10.90;99.90
37432;DHT22;23292;51.300;6.252;2024-03-06T10:29:22;10.90;99.90
37432;DHT22;23292;51.300;6.252;2024-03-06T10:31:52;11.00;99.90
37432;DHT22;23292;51.300;6.252;2024-03-06T10:34:22;11.20;99.90
37432;DHT22;23292;51.300;6.252;2024-03-06T10:36:54;10.90;99.90
37432;DHT22;23292;51.300;6.252;2024-03-06T10:39:22;10.90;99.90
37432;DHT22;23292;51.300;6.252;2024-03-06T10:41:54;11.00;99.90
37432;DHT22;23292;51.300;6.252;2024-03-06T10:44:24;11.20;99.90
37432;DHT22;23292;51.300;6.252;2024-03-06T10:46:58;11.30;99.90
37432;DHT22;23292;51.300;6.252;2024-03-06T10:49:28;11.10;99.90
37432;DHT22;23292;51.300;6.252;2024-03-06T10:51:59;11.20;99.90
37432;DHT22;23292;51.300;6.252;2024-03-06T10:54:27;11.00;99.90
37432;DHT22;23292;51.300;6.252;2024-03-06T10:56:56;10.90;99.90
37432;DHT22;23292;51.300;6.252;2024-03-06T10:59:25;11.20;99.90
37432;DHT22;23292;51.300;6.252;2024-03-06T11:01:56;10.80;99.90
37432;DHT22;23292;51.300;6.252;2024-03-06T11:04:28;10.90;99.90
37432;DHT22;23292;51.300;6.252;2024-03-06T11:06:58;10.80;99.90
37432;DHT22;23292;51.300;6.252;2024-03-06T11:09:35;10.90;99.90
37432;DHT22;23292;51.300;6.252;2024-03-06T11:12:03;11.10;99.90
37432;DHT22;23292;51.300;6.252;2024-03-06T11:14:36;11.50;99.90
37432;DHT22;23292;51.300;6.252;2024-03-06T11:17:08;11.90;99.90
37432;DHT22;23292;51.300;6.252;2024-03-06T11:28:29;12.40;99.90
37432;DHT22;23292;51.300;6.252;2024-03-06T11:33:38;13.10;99.90
37432;DHT22;23292;51.300;6.252;2024-03-06T11:36:19;13.20;99.90
37432;DHT22;23292;51.300;6.252;2024-03-06T11:39:07;13.30;99.90
37432;DHT22;23292;51.300;6.252;2024-03-06T11:44:16;13.20;99.90
37432;DHT22;23292;51.300;6.252;2024-03-06T11:46:45;12.70;99.90
37432;DHT22;23292;51.300;6.252;2024-03-06T11:49:19;12.60;99.90
37432;DHT22;23292;51.300;6.252;2024-03-06T11:51:48;12.40;99.90
37432;DHT22;23292;51.300;6.252;2024-03-06T11:54:15;12.30;99.90
37432;DHT22;23292;51.300;6.252;2024-03-06T11:56:45;12.20;99.90
37432;DHT22;23292;51.300;6.252;2024-03-06T11:59:13;12.00;99.90
37432;DHT22;23292;51.300;6.252;2024-03-06T12:01:41;11.70;99.90
37432;DHT22;23292;51.300;6.252;2024-03-06T12:04:08;11.60;99.90
37432;DHT22;23292;51.300;6.252;2024-03-06T12:06:36;11.50;99.90
37432;DHT22;23292;51.300;6.252;2024-03-06T12:09:04;11.60;99.90
37432;DHT22;23292;51.300;6.252;2024-03-06T12:11:30;12.00;99.90
37432;DHT22;23292;51.300;6.252;2024-03-06T12:13:58;12.10;99.90
37432;DHT22;23292;51.300;6.252;2024-03-06T12:16:25;12.30;99.90
37432;DHT22;23292;51.300;6.252;2024-03-06T12:18:56;12.70;99.90
37432;DHT22;23292;51.300;6.252;2024-03-06T12:21:27;12.90;99.90
37432;DHT22;23292;51.300;6.252;2024-03-06T12:24:05;13.10;99.90
37432;DHT22;23292;51.300;6.252;2024-03-06T12:26:32;12.70;99.90
37432;DHT22;23292;51.300;6.252;2024-03-06T12:29:09;12.20;99.90
37432;DHT22;23292;51.300;6.252;2024-03-06T12:31:38;11.80;99.90
37432;DHT22;23292;51.300;6.252;2024-03-06T12:34:08;11.60;99.90
37432;DHT22;23292;51.300;6.252;2024-03-06T12:36:40;11.40;99.90
37432;DHT22;23292;51.300;6.252;2024-03-06T12:39:06;11.40;99.90
37432;DHT22;23292;51.300;6.252;2024-03-06T12:41:40;11.30;99.90
37432;DHT22;23292;51.300;6.252;2024-03-06T12:44:07;11.30;99.90
37432;DHT22;23292;51.300;6.252;2024-03-06T12:46:34;11.60;99.90
37432;DHT22;23292;51.300;6.252;2024-03-06T12:49:01;11.80;99.90
37432;DHT22;23292;51.300;6.252;2024-03-06T12:51:28;12.00;99.90
37432;DHT22;23292;51.300;6.252;2024-03-06T12:53:55;11.90;99.90
37432;DHT22;23292;51.300;6.252;2024-03-06T12:56:22;12.10;99.90
37432;DHT22;23292;51.300;6.252;2024-03-06T12:58:48;11.80;99.90
37432;DHT22;23292;51.300;6.252;2024-03-06T13:01:15;11.60;99.90
37432;DHT22;23292;51.300;6.252;2024-03-06T13:03:42;11.40;99.90
37432;DHT22;23292;51.300;6.252;2024-03-06T13:06:09;11.50;99.90
37432;DHT22;23292;51.300;6.252;2024-03-06T13:08:36;11.80;99.90
37432;DHT22;23292;51.300;6.252;2024-03-06T13:11:03;12.00;99.90
37432;DHT22;23292;51.300;6.252;2024-03-06T13:13:30;12.00;99.90
37432;DHT22;23292;51.300;6.252;2024-03-06T13:15:59;11.90;99.90
37432;DHT22;23292;51.300;6.252;2024-03-06T13:18:31;12.00;99.90
37432;DHT22;23292;51.300;6.252;2024-03-06T13:20:58;12.00;99.90
37432;DHT22;23292;51.300;6.252;2024-03-06T13:23:27;12.00;99.90
37432;DHT22;23292;51.300;6.252;2024-03-06T13:25:54;12.10;99.90
37432;DHT22;23292;51.300;6.252;2024-03-06T13:28:20;12.20;99.90
37432;DHT22;23292;51.300;6.252;2024-03-06T13:30:47;12.30;99.90
37432;DHT22;23292;51.300;6.252;2024-03-06T13:33:14;12.10;99.90
37432;DHT22;23292;51.300;6.252;2024-03-06T13:35:41;12.40;99.90
37432;DHT22;23292;51.300;6.252;2024-03-06T13:38:09;12.50;99.90
37432;DHT22;23292;51.300;6.252;2024-03-06T13:40:36;12.60;99.90
37432;DHT22;23292;51.300;6.252;2024-03-06T13:43:03;12.90;99.90
37432;DHT22;23292;51.300;6.252;2024-03-06T13:45:30;12.90;99.90
37432;DHT22;23292;51.300;6.252;2024-03-06T13:47:56;12.90;99.90
37432;DHT22;23292;51.300;6.252;2024-03-06T13:50:23;12.70;99.90
37432;DHT22;23292;51.300;6.252;2024-03-06T13:52:52;12.80;99.90
37432;DHT22;23292;51.300;6.252;2024-03-06T13:55:19;12.80;99.90
37432;DHT22;23292;51.300;6.252;2024-03-06T13:57:46;12.80;99.90
37432;DHT22;23292;51.300;6.252;2024-03-06T14:00:13;12.60;99.90
37432;DHT22;23292;51.300;6.252;2024-03-06T14:02:46;12.60;99.90
37432;DHT22;23292;51.300;6.252;2024-03-06T14:05:13;12.50;99.90
37432;DHT22;23292;51.300;6.252;2024-03-06T14:07:43;12.50;99.90
37432;DHT22;23292;51.300;6.252;2024-03-06T14:10:10;12.00;99.90
37432;DHT22;23292;51.300;6.252;2024-03-06T14:12:38;12.00;99.90
37432;DHT22;23292;51.300;6.252;2024-03-06T14:15:07;11.90;99.90
37432;DHT22;23292;51.300;6.252;2024-03-06T14:17:41;11.80;99.90
37432;DHT22;23292;51.300;6.252;2024-03-06T14:20:08;11.70;99.90
37432;DHT22;23292;51.300;6.252;2024-03-06T14:22:38;11.70;99.90
37432;DHT22;23292;51.300;6.252;2024-03-06T14:25:05;11.60;99.90
37432;DHT22;23292;51.300;6.252;2024-03-06T14:27:34;11.60;99.90
37432;DHT22;23292;51.300;6.252;2024-03-06T14:30:03;11.50;99.90
37432;DHT22;23292;51.300;6.252;2024-03-06T14:32:32;11.60;99.90
37432;DHT22;23292;51.300;6.252;2024-03-06T14:34:59;11.60;99.90
37432;DHT22;23292;51.300;6.252;2024-03-06T14:37:26;11.60;99.90
37432;DHT22;23292;51.300;6.252;2024-03-06T14:39:54;11.80;99.90
37432;DHT22;23292;51.300;6.252;2024-03-06T14:42:21;11.80;99.90
37432;DHT22;23292;51.300;6.252;2024-03-06T14:44:49;11.80;99.90
37432;DHT22;23292;51.300;6.252;2024-03-06T14:47:16;11.80;99.90
37432;DHT22;23292;51.300;6.252;2024-03-06T14:49:43;11.70;99.90
37432;DHT22;23292;51.300;6.252;2024-03-06T14:52:12;11.80;99.90
37432;DHT22;23292;51.300;6.252;2024-03-06T14:54:41;11.70;99.90
37432;DHT22;23292;51.300;6.252;2024-03-06T14:57:11;11.90;99.90
37432;DHT22;23292;51.300;6.252;2024-03-06T14:59:39;12.10;99.90
37432;DHT22;23292;51.300;6.252;2024-03-06T15:02:06;12.10;99.90
37432;DHT22;23292;51.300;6.252;2024-03-06T15:04:33;12.30;99.90
37432;DHT22;23292;51.300;6.252;2024-03-06T15:07:00;12.00;99.90
37432;DHT22;23292;51.300;6.252;2024-03-06T15:09:27;12.10;99.90
37432;DHT22;23292;51.300;6.252;2024-03-06T15:11:54;12.10;99.90
37432;DHT22;23292;51.300;6.252;2024-03-06T15:14:23;12.20;99.90
37432;DHT22;23292;51.300;6.252;2024-03-06T15:16:50;12.20;99.90
37432;DHT22;23292;51.300;6.252;2024-03-06T15:19:17;12.30;99.90
37432;DHT22;23292;51.300;6.252;2024-03-06T15:21:44;12.30;99.90
37432;DHT22;23292;51.300;6.252;2024-03-06T15:24:10;12.30;99.90
37432;DHT22;23292;51.300;6.252;2024-03-06T15:26:37;12.30;99.90
37432;DHT22;23292;51.300;6.252;2024-03-06T15:29:04;12.40;99.90
37432;DHT22;23292;51.300;6.252;2024-03-06T15:31:36;12.40;99.90
37432;DHT22;23292;51.300;6.252;2024-03-06T15:34:03;12.40;99.90
37432;DHT22;23292;51.300;6.252;2024-03-06T15:36:30;12.70;99.90
37432;DHT22;23292;51.300;6.252;2024-03-06T15:38:57;12.60;99.90
37432;DHT22;23292;51.300;6.252;2024-03-06T15:41:25;12.60;99.90
37432;DHT22;23292;51.300;6.252;2024-03-06T15:43:52;12.60;99.90
37432;DHT22;23292;51.300;6.252;2024-03-06T15:46:19;12.50;99.90
37432;DHT22;23292;51.300;6.252;2024-03-06T15:48:46;12.60;99.90
37432;DHT22;23292;51.300;6.252;2024-03-06T15:51:13;12.60;99.90
37432;DHT22;23292;51.300;6.252;2024-03-06T15:53:40;12.70;99.90
37432;DHT22;23292;51.300;6.252;2024-03-06T15:56:07;12.50;99.90
37432;DHT22;23292;51.300;6.252;2024-03-06T15:58:35;12.50;99.90
37432;DHT22;23292;51.300;6.252;2024-03-06T16:01:01;12.40;99.90
37432;DHT22;23292;51.300;6.252;2024-03-06T16:03:31;12.40;99.90
37432;DHT22;23292;51.300;6.252;2024-03-06T16:05:58;12.30;99.90